Terminal Aerodrome Forecast
Issued by NWS

Home | Current Version | Previous Version | Text Only | Print | Product List | Glossary On
Versions: 1 2 3 4 5 6 7 8 9 10 11 12 13 14 15 16 17 18 19 20 21 22 23 24 25 26 27
000
FTUS41 KBUF 190532
TAFJHW
TAF
KJHW 190532Z 1906/2006 16010KT P6SM SCT250 WS020/17045KT
     FM191400 18014KT 6SM -RA OVC060
     FM191500 18014KT 6SM -RA SCT007 OVC015
     FM191800 19014G21KT 4SM RA OVC007
     FM192200 20012KT 6SM -RA SCT007 OVC040 WS020/23040KT
     FM200200 21014KT P6SM SCT007 OVC035 WS020/23045KT
      AMD NOT SKED=

USA.gov is the U.S. government's official web portal to all federal, state and local government web resources and services.